Big Bend National Park, TX

8:56 PM CDT on September 04, 2015 (GMT -0500)
Terlingua Ranch Lodge | | Change Station
CLOSE
Current Station
Personal Weather Station
Location: Terlingua, TX
Elevation: 3684 ft
Nearby Weather Stations

Elev 3684 ft 29.45 °N, 103.39 °W | Updated 8 seconds ago

Partly Cloudy
Partly Cloudy
88.5 °F
Feels Like 86 °F
N
7.6
Wind Variable Wind from North
Gusts 8.3 mph

Today
High -- | Low -- °F
--% Chance of Precip.
Yesterday
High -- | Low -- °F
Precip. -- in
7:31 AM 8:11 PM
Waning Gibbous, 54% visible
Pressure 29.84 in
Visibility 10.0 miles
Clouds Clear
Heat Index 86 °F
Dew Point 52 °F
Humidity 29%
Rainfall 0.00 in
Snow Depth Not available.
UV 0 out of 12
Pollen 9.80 out of 12
Air Quality Not available.
Flu Activity Not available.
METAR KPRS 050135Z AUTO 06006KT 10SM CLR 35/09 A2984 RMK AO2 T03510091
Pressure 29.84 in
Visibility 10.0 miles
Clouds Clear
Heat Index 86 °F
Dew Point 52 °F
Humidity 29%
Rainfall 0.00 in
Snow Depth Not available.
UV 0 out of 12
Pollen 9.80 out of 12
Air Quality Not available.
Flu Activity Not available.
METAR KPRS 050135Z AUTO 06006KT 10SM CLR 35/09 A2984 RMK AO2 T03510091

10-Day Weather Forecast

×

Almanac

Astronomy

Sep. 04, 2015 Rise Set
Actual Time
Civil Twilight
Nautical Twilight
Astronomical Twilight
Moon
Length of Visible Light
Length of Day
Tomorrow will be .
, % of the Moon is Illuminated

Today's Extremes

State Highs State Lows

Community

WunderPhotos

Upload Photos

1,852,375 photos uploaded!

WunderBlogs® & News

Nearby

Air Quality

  Air Quality AQ Index Pollutant
Not available.

Snow Depth

Station Depth Elevation

Earthquake Activity

City Distance Mag. Time & Date
Minimum magnitude displayed is 2.5.

Coastal Water Temperatures

Place Temperature

Stations

Nearby Weather Stations

Station Location Temp. Windchill Dew Point Humidity Wind Precip. Elev Updated Type